Time;durP1;ratioP1;P1;durP2;ratioP2;P2;SDS_P1;SDS_P2;PMS_P1;PMS_P2;Temp;Humidity;BMP_temperature;BMP_pressure;BME280_temperature;BME280_humidity;BME280_pressure;Samples;Min_cycle;Max_cycle;Signal;HPM_P1;HPM_P2
2023/11/27 00:01:23;;;;;;;15.60;8.80;;;;;;;-0.14;96.69;99859.27;105282;1264;97925;-78
2023/11/27 00:04:09;;;;;;;13.40;8.20;;;;;;;-0.13;96.71;99859.50;105355;1259;102620;-79
2023/11/27 00:06:55;;;;;;;14.60;8.40;;;;;;;-0.10;96.67;99858.04;105446;1259;99194;-78
2023/11/27 00:09:40;;;;;;;15.60;8.30;;;;;;;-0.10;96.61;99858.70;105326;1259;98409;-78
2023/11/27 00:12:26;;;;;;;14.70;8.00;;;;;;;-0.10;96.65;99856.12;105318;1260;97974;-79
2023/11/27 00:15:13;;;;;;;14.50;8.60;;;;;;;-0.10;96.60;99853.48;105311;1259;97933;-78
2023/11/27 00:17:59;;;;;;;14.50;8.40;;;;;;;-0.11;96.71;99851.50;105390;1263;101389;-78
2023/11/27 00:20:44;;;;;;;14.70;9.10;;;;;;;-0.11;96.65;99855.67;105338;1259;100411;-79
2023/11/27 00:23:30;;;;;;;15.00;9.10;;;;;;;-0.13;96.55;99855.30;105405;1259;99142;-79
2023/11/27 00:26:16;;;;;;;13.00;8.50;;;;;;;-0.13;96.76;99857.45;105407;1259;99323;-78
2023/11/27 00:29:03;;;;;;;14.10;8.40;;;;;;;-0.14;96.59;99856.66;105285;1264;98597;-79
2023/11/27 00:31:48;;;;;;;16.40;8.50;;;;;;;-0.15;96.64;99857.77;105350;1259;101411;-79
2023/11/27 00:34:34;;;;;;;12.10;8.20;;;;;;;-0.15;96.60;99856.03;105229;1259;99106;-78
2023/11/27 00:37:20;;;;;;;16.10;9.30;;;;;;;-0.15;96.56;99852.71;105248;1265;98827;-79
2023/11/27 00:40:06;;;;;;;18.60;9.10;;;;;;;-0.16;96.60;99851.05;105402;1260;97979;-78
2023/11/27 00:42:52;;;;;;;15.00;8.90;;;;;;;-0.17;96.64;99848.52;105345;1263;98488;-79
2023/11/27 00:45:37;;;;;;;15.00;8.80;;;;;;;-0.20;96.58;99849.30;105752;1259;103060;-80
2023/11/27 00:48:23;;;;;;;14.40;9.10;;;;;;;-0.21;96.69;99848.38;105762;1260;99141;-79
2023/11/27 00:51:13;;;;;;;14.30;8.60;;;;;;;-0.21;96.84;99849.38;105950;1261;98440;-80
2023/11/27 00:53:58;;;;;;;12.90;8.90;;;;;;;-0.21;96.78;99848.38;105862;1263;97981;-80
2023/11/27 00:56:43;;;;;;;13.50;9.10;;;;;;;-0.23;96.80;99848.49;105895;1264;97993;-79
2023/11/27 00:59:31;;;;;;;17.70;9.00;;;;;;;-0.23;96.93;99845.16;105854;1264;101379;-79
2023/11/27 01:02:17;;;;;;;13.60;9.00;;;;;;;-0.22;97.00;99844.26;105574;1264;99092;-79
2023/11/27 01:05:03;;;;;;;17.20;9.70;;;;;;;-0.23;96.88;99842.70;105294;1259;98392;-78
2023/11/27 01:07:48;;;;;;;15.10;9.30;;;;;;;-0.24;96.83;99839.48;105357;1263;98557;-78
2023/11/27 01:10:34;;;;;;;16.70;8.70;;;;;;;-0.27;96.84;99842.36;105362;1263;97999;-78
2023/11/27 01:13:19;;;;;;;16.80;10.40;;;;;;;-0.26;97.04;99845.69;105315;1264;101412;-78
2023/11/27 01:16:05;;;;;;;16.20;8.40;;;;;;;-0.26;97.16;99845.80;105232;1259;99218;-79
2023/11/27 01:18:52;;;;;;;18.40;10.80;;;;;;;-0.27;97.08;99844.82;106007;1263;97974;-78
2023/11/27 01:21:38;;;;;;;16.50;10.00;;;;;;;-0.29;97.05;99843.57;105482;1264;97994;-79
2023/11/27 01:24:23;;;;;;;17.90;10.70;;;;;;;-0.31;97.04;99842.71;105353;1265;97768;-78
2023/11/27 01:27:09;;;;;;;16.20;9.80;;;;;;;-0.30;97.27;99841.77;105199;1263;102738;-79
2023/11/27 01:29:54;;;;;;;16.90;10.60;;;;;;;-0.28;97.26;99838.67;105368;1264;99141;-78
2023/11/27 01:32:42;;;;;;;15.10;9.50;;;;;;;-0.28;97.10;99833.73;105366;1264;99069;-78
2023/11/27 01:35:27;;;;;;;18.70;10.80;;;;;;;-0.32;97.04;99831.58;105295;1259;98660;-79
2023/11/27 01:38:13;;;;;;;18.20;10.50;;;;;;;-0.33;97.05;99831.33;105311;1259;98844;-77
2023/11/27 01:40:59;;;;;;;19.70;10.40;;;;;;;-0.35;97.23;99828.20;105238;1259;101419;-79
2023/11/27 01:43:45;;;;;;;17.40;10.40;;;;;;;-0.35;97.31;99827.00;105281;1259;99671;-78
2023/11/27 01:46:31;;;;;;;16.60;11.00;;;;;;;-0.33;97.46;99826.80;105377;1264;99683;-78
2023/11/27 01:49:20;;;;;;;18.60;10.30;;;;;;;-0.30;97.45;99827.63;105421;1264;98064;-79
2023/11/27 01:52:08;;;;;;;15.20;10.20;;;;;;;-0.30;97.42;99822.86;105285;1260;98396;-79
2023/11/27 01:54:55;;;;;;;15.40;9.40;;;;;;;-0.30;97.35;99818.59;105319;1263;102079;-79
2023/11/27 01:57:41;;;;;;;16.00;10.30;;;;;;;-0.31;97.27;99814.72;105302;1260;99080;-77
2023/11/27 02:00:28;;;;;;;18.40;12.20;;;;;;;-0.32;97.30;99812.20;105271;1259;97919;-77
2023/11/27 02:03:14;;;;;;;20.70;12.60;;;;;;;-0.31;97.47;99812.91;105409;1265;97967;-79
2023/11/27 02:06:00;;;;;;;17.40;11.90;;;;;;;-0.33;97.12;99812.39;105337;1263;98523;-78
2023/11/27 02:08:45;;;;;;;18.20;12.30;;;;;;;-0.35;97.19;99808.95;105333;1259;102620;-79
2023/11/27 02:11:31;;;;;;;20.60;12.40;;;;;;;-0.37;97.29;99810.17;105270;1265;99103;-79
2023/11/27 02:14:17;;;;;;;17.70;11.40;;;;;;;-0.36;97.57;99811.27;105379;1259;99037;-79
2023/11/27 02:17:03;;;;;;;18.70;12.30;;;;;;;-0.32;97.51;99812.89;105355;1265;98393;-78
2023/11/27 02:19:49;;;;;;;20.60;13.00;;;;;;;-0.29;97.78;99812.36;105296;1265;98038;-79
2023/11/27 02:22:34;;;;;;;19.80;11.90;;;;;;;-0.26;97.82;99814.88;105394;1262;101346;-79
2023/11/27 02:25:21;;;;;;;21.30;11.60;;;;;;;-0.25;97.65;99815.39;105387;1264;99180;-79
2023/11/27 02:28:07;;;;;;;23.50;12.00;;;;;;;-0.26;97.50;99818.60;105641;1264;97744;-79
2023/11/27 02:30:52;;;;;;;19.40;12.10;;;;;;;-0.28;97.35;99812.48;105817;1259;98551;-79
2023/11/27 02:33:40;;;;;;;18.70;11.30;;;;;;;-0.30;97.35;99810.75;105729;1266;97903;-79
2023/11/27 02:36:28;;;;;;;18.90;12.10;;;;;;;-0.33;97.20;99808.58;105659;1265;101343;-80
2023/11/27 02:39:16;;;;;;;20.60;13.60;;;;;;;-0.38;97.19;99805.34;105959;1259;99129;-79
2023/11/27 02:42:02;;;;;;;21.30;13.60;;;;;;;-0.39;97.34;99804.57;105743;1259;99507;-80
2023/11/27 02:44:47;;;;;;;23.50;13.60;;;;;;;-0.38;97.40;99806.42;105783;1265;98058;-80
2023/11/27 02:47:33;;;;;;;19.00;13.40;;;;;;;-0.38;97.40;99808.69;105851;1259;97920;-77
2023/11/27 02:50:18;;;;;;;22.20;13.70;;;;;;;-0.41;97.23;99807.16;105611;1264;101423;-78
2023/11/27 02:53:05;;;;;;;23.00;13.80;;;;;;;-0.43;97.28;99804.59;105493;1259;99113;-79
2023/11/27 02:55:52;;;;;;;23.90;14.80;;;;;;;-0.43;97.44;99808.73;105550;1263;98481;-79
2023/11/27 02:58:38;;;;;;;20.00;13.10;;;;;;;-0.43;97.34;99813.20;105548;1263;97997;-80
2023/11/27 03:01:26;;;;;;;22.40;13.60;;;;;;;-0.46;97.31;99810.09;105921;1265;97891;-79
2023/11/27 03:04:12;;;;;;;22.40;13.60;;;;;;;-0.48;97.27;99809.42;106007;1259;101394;-79
2023/11/27 03:06:58;;;;;;;25.00;14.80;;;;;;;-0.48;97.27;99806.75;106206;1264;99242;-79
2023/11/27 03:09:47;;;;;;;25.40;15.50;;;;;;;-0.48;97.44;99800.60;105901;1259;98745;-79
2023/11/27 03:12:35;;;;;;;24.70;15.00;;;;;;;-0.45;97.55;99800.52;105889;1264;97999;-79
2023/11/27 03:15:21;;;;;;;22.70;14.70;;;;;;;-0.41;97.75;99801.95;105612;1262;97982;-79
2023/11/27 03:18:07;;;;;;;26.60;14.70;;;;;;;-0.40;97.55;99801.16;105553;1259;102607;-80
2023/11/27 03:20:53;;;;;;;21.30;14.10;;;;;;;-0.42;97.36;99801.46;106018;1264;100456;-79
2023/11/27 03:23:38;;;;;;;21.50;13.20;;;;;;;-0.43;97.37;99797.86;105662;1265;98389;-78
2023/11/27 03:26:24;;;;;;;22.20;13.70;;;;;;;-0.44;97.35;99795.51;105493;1263;97963;-78
2023/11/27 03:29:09;;;;;;;23.10;14.70;;;;;;;-0.47;97.29;99791.96;105431;1263;98389;-79
2023/11/27 03:31:55;;;;;;;24.10;14.80;;;;;;;-0.50;97.45;99787.98;105480;1259;101951;-78
2023/11/27 03:34:43;;;;;;;26.10;16.20;;;;;;;-0.49;97.50;99786.20;105410;1259;99926;-79
2023/11/27 03:37:29;;;;;;;23.50;15.20;;;;;;;-0.53;97.49;99785.41;105409;1264;98368;-79
2023/11/27 03:40:15;;;;;;;24.70;15.00;;;;;;;-0.52;97.78;99781.70;105572;1263;97987;-78
2023/11/27 03:43:00;;;;;;;24.50;15.90;;;;;;;-0.50;98.04;99783.12;106203;1265;98465;-79
2023/11/27 03:45:46;;;;;;;25.60;16.30;;;;;;;-0.51;97.81;99779.85;105407;1259;101428;-78
2023/11/27 03:48:31;;;;;;;26.00;15.30;;;;;;;-0.53;97.86;99780.59;105475;1259;99866;-79
2023/11/27 03:51:17;;;;;;;26.90;15.30;;;;;;;-0.55;97.90;99785.00;105538;1264;98166;-79
2023/11/27 03:54:02;;;;;;;29.60;15.80;;;;;;;-0.56;98.05;99785.74;105449;1259;98477;-79
2023/11/27 03:56:48;;;;;;;26.20;15.30;;;;;;;-0.57;98.02;99783.59;105780;1263;97876;-79
2023/11/27 03:59:34;;;;;;;26.20;15.80;;;;;;;-0.57;98.24;99781.42;105916;1265;101492;-79
2023/11/27 04:02:20;;;;;;;28.70;16.20;;;;;;;-0.54;98.31;99779.13;105930;1259;99131;-79
2023/11/27 04:05:06;;;;;;;26.70;15.20;;;;;;;-0.55;98.26;99781.98;105878;1262;97974;-80
2023/11/27 04:07:52;;;;;;;32.40;16.80;;;;;;;-0.55;98.45;99781.84;105916;1265;98134;-79
2023/11/27 04:10:37;;;;;;;27.10;16.00;;;;;;;-0.56;98.45;99778.69;105834;1264;98472;-79
2023/11/27 04:13:23;;;;;;;30.60;17.70;;;;;;;-0.56;98.56;99776.47;105558;1260;101346;-79
2023/11/27 04:16:09;;;;;;;29.40;17.10;;;;;;;-0.55;98.67;99778.49;105603;1259;100375;-79
2023/11/27 04:18:54;;;;;;;27.90;16.50;;;;;;;-0.54;98.65;99771.70;105345;1259;99097;-79
2023/11/27 04:21:39;;;;;;;29.90;17.50;;;;;;;-0.56;98.54;99771.56;105476;1259;97942;-78
2023/11/27 04:24:25;;;;;;;27.10;16.00;;;;;;;-0.58;98.69;99768.58;105392;1260;97970;-79
2023/11/27 04:27:11;;;;;;;31.20;15.90;;;;;;;-0.57;98.79;99770.07;105399;1261;104128;-80
2023/11/27 04:29:56;;;;;;;24.80;15.40;;;;;;;-0.58;98.72;99767.20;105489;1266;100352;-79
2023/11/27 04:32:42;;;;;;;26.30;16.20;;;;;;;-0.60;98.70;99764.17;105472;1259;97962;-78
2023/11/27 04:35:27;;;;;;;27.80;16.40;;;;;;;-0.60;98.84;99763.64;105435;1259;98846;-78
2023/11/27 04:38:13;;;;;;;27.90;16.00;;;;;;;-0.58;98.90;99763.86;105476;1260;98427;-79
2023/11/27 04:40:59;;;;;;;30.10;16.20;;;;;;;-0.58;98.86;99766.67;105556;1263;102712;-78
2023/11/27 04:43:44;;;;;;;29.10;16.90;;;;;;;-0.60;98.78;99760.13;105302;1265;99253;-80
2023/11/27 04:46:30;;;;;;;29.10;15.40;;;;;;;-0.62;98.72;99755.77;105417;1260;98508;-79
2023/11/27 04:49:15;;;;;;;25.30;14.70;;;;;;;-0.64;98.66;99751.63;105524;1263;97970;-78
2023/11/27 04:52:01;;;;;;;30.80;17.00;;;;;;;-0.68;98.73;99746.36;105437;1263;98458;-78
2023/11/27 04:54:47;;;;;;;30.00;16.30;;;;;;;-0.71;98.90;99745.52;105525;1265;101979;-79
2023/11/27 04:57:32;;;;;;;29.30;17.10;;;;;;;-0.73;98.91;99747.65;105592;1263;99322;-79
2023/11/27 05:00:18;;;;;;;28.30;16.80;;;;;;;-0.72;99.04;99746.16;105417;1263;98852;-79
2023/11/27 05:03:04;;;;;;;24.00;14.40;;;;;;;-0.71;99.15;99748.17;105394;1264;97875;-79
2023/11/27 05:05:49;;;;;;;26.80;15.00;;;;;;;-0.71;99.12;99747.52;105382;1265;97845;-78
2023/11/27 05:08:35;;;;;;;30.60;15.50;;;;;;;-0.71;99.14;99751.36;105558;1260;101309;-79
2023/11/27 05:11:21;;;;;;;26.00;15.20;;;;;;;-0.73;99.07;99750.25;105470;1260;100526;-79
2023/11/27 05:14:06;;;;;;;29.50;16.10;;;;;;;-0.72;99.32;99747.07;105830;1263;98786;-79
2023/11/27 05:16:52;;;;;;;26.80;14.20;;;;;;;-0.71;99.35;99751.86;105467;1263;98085;-79
2023/11/27 05:19:38;;;;;;;25.70;14.10;;;;;;;-0.71;99.42;99752.52;105575;1264;97887;-79
2023/11/27 05:22:23;;;;;;;24.20;14.50;;;;;;;-0.70;99.43;99754.36;105512;1263;101332;-78
2023/11/27 05:25:09;;;;;;;27.60;15.30;;;;;;;-0.68;99.36;99754.77;105955;1263;100102;-81
2023/11/27 05:27:54;;;;;;;25.10;13.70;;;;;;;-0.69;99.45;99754.33;106656;1263;98394;-80
2023/11/27 05:30:40;;;;;;;27.90;14.00;;;;;;;-0.70;99.39;99755.48;106620;1259;97972;-80
2023/11/27 05:33:26;;;;;;;26.10;14.10;;;;;;;-0.70;99.57;99756.87;106642;1260;98507;-80
2023/11/27 05:36:12;;;;;;;26.60;14.10;;;;;;;-0.68;99.65;99762.27;105963;1264;101800;-80
2023/11/27 05:38:57;;;;;;;25.10;13.60;;;;;;;-0.67;99.58;99764.47;106082;1259;99145;-80
2023/11/27 05:41:43;;;;;;;25.70;14.40;;;;;;;-0.68;99.64;99767.77;106047;1259;98437;-80
2023/11/27 05:44:29;;;;;;;21.00;12.40;;;;;;;-0.69;99.60;99772.24;106058;1263;98733;-79
2023/11/27 05:47:15;;;;;;;23.30;12.60;;;;;;;-0.72;99.60;99772.59;105952;1260;98589;-80
2023/11/27 05:50:02;;;;;;;21.10;13.10;;;;;;;-0.70;99.72;99774.25;106090;1263;102627;-79
2023/11/27 05:52:48;;;;;;;27.90;13.70;;;;;;;-0.70;99.72;99778.60;105916;1259;99112;-78
2023/11/27 05:55:33;;;;;;;24.30;13.10;;;;;;;-0.70;99.78;99778.40;105939;1259;99129;-79
2023/11/27 05:58:20;;;;;;;22.10;12.40;;;;;;;-0.68;99.93;99783.86;105994;1261;97936;-80
2023/11/27 06:01:06;;;;;;;20.20;12.10;;;;;;;-0.68;99.83;99781.21;106094;1259;97957;-80
2023/11/27 06:03:51;;;;;;;24.70;13.30;;;;;;;-0.67;99.77;99782.17;105799;1260;101442;-79
2023/11/27 06:06:37;;;;;;;25.10;14.40;;;;;;;-0.66;99.87;99783.33;105391;1266;99289;-78
2023/11/27 06:09:23;;;;;;;25.70;13.50;;;;;;;-0.66;99.81;99782.40;105477;1263;97987;-79
2023/11/27 06:12:10;;;;;;;20.70;13.10;;;;;;;-0.67;99.81;99782.05;105601;1260;97971;-78
2023/11/27 06:14:55;;;;;;;23.40;13.60;;;;;;;-0.68;99.83;99780.33;105387;1263;98424;-79
2023/11/27 06:17:41;;;;;;;21.60;13.40;;;;;;;-0.68;99.72;99782.27;105477;1264;102982;-78
2023/11/27 06:20:26;;;;;;;19.90;12.40;;;;;;;-0.66;99.80;99786.52;105531;1260;99420;-78
2023/11/27 06:23:12;;;;;;;21.80;13.70;;;;;;;-0.66;99.73;99785.76;105302;1263;99074;-78
2023/11/27 06:25:57;;;;;;;20.60;13.70;;;;;;;-0.64;99.66;99789.27;105301;1264;98752;-78
2023/11/27 06:28:44;;;;;;;25.90;13.50;;;;;;;-0.63;99.64;99789.73;105421;1265;99635;-79
2023/11/27 06:31:29;;;;;;;24.10;13.40;;;;;;;-0.62;99.62;99788.05;105420;1263;102632;-79
2023/11/27 06:34:16;;;;;;;18.80;13.50;;;;;;;-0.61;99.68;99790.27;105559;1260;99123;-78
2023/11/27 06:37:01;;;;;;;23.90;13.00;;;;;;;-0.61;99.58;99791.40;105459;1260;97961;-79
2023/11/27 06:39:47;;;;;;;21.70;12.70;;;;;;;-0.60;99.43;99794.20;105390;1273;98560;-78
2023/11/27 06:42:33;;;;;;;20.20;12.90;;;;;;;-0.59;99.49;99792.02;105392;1260;98494;-78
2023/11/27 06:45:19;;;;;;;20.40;12.60;;;;;;;-0.58;99.26;99793.46;105406;1273;102647;-79
2023/11/27 06:48:05;;;;;;;21.60;12.00;;;;;;;-0.57;99.30;99792.86;105317;1264;99090;-77
2023/11/27 06:50:51;;;;;;;20.50;12.30;;;;;;;-0.57;99.16;99790.76;105447;1260;97961;-79
2023/11/27 06:53:37;;;;;;;21.50;12.30;;;;;;;-0.57;99.20;99789.13;105376;1263;98105;-78
2023/11/27 06:56:23;;;;;;;22.60;13.00;;;;;;;-0.56;99.09;99786.23;105465;1261;98422;-78
2023/11/27 06:59:09;;;;;;;21.80;12.40;;;;;;;-0.55;98.92;99789.70;105563;1264;101461;-78
2023/11/27 07:01:55;;;;;;;22.40;12.70;;;;;;;-0.56;98.70;99790.86;105596;1263;99142;-79
2023/11/27 07:04:40;;;;;;;24.80;13.80;;;;;;;-0.58;98.68;99794.13;105546;1265;97939;-78
2023/11/27 07:07:26;;;;;;;21.90;12.80;;;;;;;-0.58;98.64;99799.06;105546;1260;98806;-79
2023/11/27 07:10:13;;;;;;;21.40;12.40;;;;;;;-0.57;98.66;99794.29;105476;1260;97850;-79
2023/11/27 07:12:59;;;;;;;25.60;14.20;;;;;;;-0.60;98.41;99800.97;105378;1263;101409;-79
2023/11/27 07:15:45;;;;;;;23.90;13.80;;;;;;;-0.60;98.49;99794.92;105410;1260;99136;-79
2023/11/27 07:18:31;;;;;;;23.40;15.40;;;;;;;-0.60;98.46;99792.27;105439;1266;99639;-78
2023/11/27 07:21:17;;;;;;;21.20;13.40;;;;;;;-0.61;98.35;99792.84;105406;1264;97993;-79
2023/11/27 07:24:02;;;;;;;23.60;13.10;;;;;;;-0.59;98.41;99792.68;105282;1258;98501;-79
2023/11/27 07:26:48;;;;;;;23.30;13.90;;;;;;;-0.59;98.33;99792.13;105397;1261;102467;-79
2023/11/27 07:29:33;;;;;;;23.00;13.20;;;;;;;-0.57;98.36;99789.89;105296;1264;100110;-79
2023/11/27 07:32:19;;;;;;;26.60;14.70;;;;;;;-0.57;98.23;99792.48;105329;1264;98116;-78
2023/11/27 07:35:05;;;;;;;23.50;14.10;;;;;;;-0.55;98.10;99797.54;105323;1264;98777;-78
2023/11/27 07:37:51;;;;;;;25.10;14.20;;;;;;;-0.53;98.38;99798.31;105424;1262;98393;-77
2023/11/27 07:40:36;;;;;;;25.90;14.80;;;;;;;-0.50;98.43;99801.20;105374;1263;102178;-78
2023/11/27 07:43:22;;;;;;;27.70;15.30;;;;;;;-0.50;98.36;99797.80;105327;1263;99171;-78
2023/11/27 07:46:12;;;;;;;25.20;14.90;;;;;;;-0.48;98.31;99795.86;105649;1266;99534;-79
2023/11/27 07:48:57;;;;;;;26.70;14.50;;;;;;;-0.46;98.27;99793.06;105293;1263;98100;-79
2023/11/27 07:51:43;;;;;;;21.60;14.20;;;;;;;-0.46;98.23;99794.14;105841;1263;134124;-79
2023/11/27 07:54:28;;;;;;;22.20;13.30;;;;;;;-0.45;98.31;99796.63;105942;1263;101428;-79
2023/11/27 07:57:14;;;;;;;26.80;16.30;;;;;;;-0.47;97.99;99799.48;105608;1261;99321;-83
2023/11/27 08:00:02;;;;;;;30.50;18.80;;;;;;;-0.48;97.95;99798.71;105940;1261;98031;-86
2023/11/27 08:03:01;;;;;;;24.70;16.00;;;;;;;-0.48;97.85;99800.68;106155;1260;97958;-88
2023/11/27 08:06:19;;;;;;;;;;;;;;;-0.49;97.88;99799.68;106525;1263;97969;-84
2023/11/27 08:09:05;;;;;;;20.80;13.50;;;;;;;-0.50;97.89;99800.42;106605;1261;101381;-84
2023/11/27 08:11:51;;;;;;;26.20;16.00;;;;;;;-0.49;98.04;99794.52;106324;1264;100462;-82
2023/11/27 08:14:37;;;;;;;33.60;19.20;;;;;;;-0.45;98.04;99789.13;106018;1261;98711;-80
2023/11/27 08:17:25;;;;;;;27.50;16.30;;;;;;;-0.43;97.98;99789.11;106134;1263;98538;-81
2023/11/27 08:20:15;;;;;;;23.70;15.00;;;;;;;-0.40;97.87;99787.45;106092;1272;97932;-82
2023/11/27 08:23:02;;;;;;;24.30;14.20;;;;;;;-0.36;97.93;99787.79;105901;1270;101447;-82
2023/11/27 08:25:47;;;;;;;22.00;14.70;;;;;;;-0.34;97.88;99786.85;105827;1261;99162;-81
2023/11/27 08:28:34;;;;;;;20.30;12.40;;;;;;;-0.33;98.00;99791.70;106089;1263;99520;-81
2023/11/27 08:31:21;;;;;;;25.40;14.90;;;;;;;-0.31;97.99;99799.26;106022;1261;97941;-83
2023/11/27 08:34:07;;;;;;;25.80;16.80;;;;;;;-0.31;97.64;99800.61;106380;1263;98027;-84
2023/11/27 08:36:53;;;;;;;24.80;16.20;;;;;;;-0.32;97.56;99799.84;105875;1267;102677;-85
2023/11/27 08:39:39;;;;;;;29.10;16.70;;;;;;;-0.28;97.77;99797.90;105937;1260;100637;-84
2023/11/27 08:42:25;;;;;;;28.50;15.90;;;;;;;-0.23;97.96;99794.86;106084;1263;97948;-78
2023/11/27 08:45:12;;;;;;;23.60;15.20;;;;;;;-0.19;97.89;99788.85;105445;1264;99143;-78
2023/11/27 08:48:00;;;;;;;24.40;16.20;;;;;;;-0.18;97.65;99787.36;105409;1262;98506;-86
2023/11/27 08:50:47;;;;;;;24.40;15.40;;;;;;;-0.16;97.78;99784.06;106218;1264;102286;-86
2023/11/27 08:53:32;;;;;;;22.50;14.40;;;;;;;-0.15;97.46;99784.81;106182;1259;100083;-84
2023/11/27 08:56:21;;;;;;;19.80;13.00;;;;;;;-0.12;97.46;99781.70;106015;1264;97972;-86
2023/11/27 08:59:10;;;;;;;22.40;14.40;;;;;;;-0.11;97.45;99774.74;106381;1260;97979;-86
2023/11/27 09:01:56;;;;;;;27.00;16.40;;;;;;;-0.09;97.65;99776.13;106296;1261;97907;-83
2023/11/27 09:04:43;;;;;;;31.30;17.30;;;;;;;-0.05;97.68;99777.58;106260;1264;103569;-84
2023/11/27 09:07:29;;;;;;;29.80;17.80;;;;;;;-0.02;97.71;99779.37;106091;1264;100029;-85
2023/11/27 09:10:15;;;;;;;33.30;19.30;;;;;;;0.03;97.69;99781.57;106059;1261;97993;-82
2023/11/27 09:13:01;;;;;;;33.10;19.20;;;;;;;0.03;97.36;99775.13;105937;1260;98056;-84
2023/11/27 09:15:47;;;;;;;28.10;17.20;;;;;;;0.03;97.62;99777.01;106209;1260;97986;-85
2023/11/27 09:18:34;;;;;;;29.20;18.60;;;;;;;0.09;97.99;99776.28;106221;1261;102613;-87
2023/11/27 09:21:19;;;;;;;26.90;16.00;;;;;;;0.14;98.03;99770.37;106465;1263;99197;-86
2023/11/27 09:24:06;;;;;;;21.80;14.50;;;;;;;0.19;98.03;99766.20;106264;1266;97970;-77
2023/11/27 09:26:52;;;;;;;23.00;14.30;;;;;;;0.22;97.90;99769.66;105546;1260;99237;-76
2023/11/27 09:29:37;;;;;;;21.90;13.80;;;;;;;0.22;97.78;99771.04;105244;1261;99193;-77
2023/11/27 09:32:23;;;;;;;28.80;17.00;;;;;;;0.21;97.91;99767.39;105425;1263;102676;-78
2023/11/27 09:35:14;;;;;;;29.00;18.70;;;;;;;0.22;97.83;99763.48;105372;1263;101205;-77
2023/11/27 09:38:00;;;;;;;25.40;17.80;;;;;;;0.21;97.78;99767.66;105544;1264;99035;-85
2023/11/27 09:40:47;;;;;;;23.30;16.50;;;;;;;0.21;97.89;99767.75;106357;1264;97936;-83
2023/11/27 09:43:34;;;;;;;25.20;16.20;;;;;;;0.23;98.00;99760.94;106038;1260;97922;-84
2023/11/27 09:46:22;;;;;;;21.50;14.40;;;;;;;0.26;98.02;99761.55;106051;1274;101574;-84
2023/11/27 09:49:15;;;;;;;21.60;13.60;;;;;;;0.28;97.89;99751.66;106043;1261;100934;-82
2023/11/27 09:52:04;;;;;;;24.70;15.10;;;;;;;0.27;97.66;99752.11;106208;1260;97955;-81
2023/11/27 09:54:57;;;;;;;25.00;14.60;;;;;;;0.28;97.91;99754.16;106660;1260;98184;-86
2023/11/27 09:57:47;;;;;;;23.30;13.70;;;;;;;0.28;97.83;99751.67;106112;1260;98506;-82
2023/11/27 10:00:33;;;;;;;24.20;15.50;;;;;;;0.28;97.90;99751.67;106311;1260;103645;-84
2023/11/27 10:03:19;;;;;;;20.80;13.70;;;;;;;0.31;98.12;99748.74;105784;1264;99114;-79
2023/11/27 10:06:08;;;;;;;24.20;13.70;;;;;;;0.34;98.18;99744.44;105478;1260;97964;-80
2023/11/27 10:09:07;;;;;;;23.90;14.70;;;;;;;0.35;97.92;99741.89;105542;1263;98021;-80
2023/11/27 10:12:00;;;;;;;20.90;13.60;;;;;;;0.35;98.14;99741.84;105988;1261;97970;-80
2023/11/27 10:14:46;;;;;;;23.70;14.90;;;;;;;0.36;97.86;99741.23;105571;1263;102299;-79
2023/11/27 10:17:33;;;;;;;20.40;13.60;;;;;;;0.36;97.84;99737.05;105587;1260;100184;-79
2023/11/27 10:20:24;;;;;;;21.60;14.30;;;;;;;0.36;97.62;99733.90;105648;1263;98989;-85
2023/11/27 10:23:11;;;;;;;25.30;14.80;;;;;;;0.34;97.66;99732.36;105829;1264;98454;-81
2023/11/27 10:25:57;;;;;;;23.30;14.00;;;;;;;0.34;97.82;99732.69;106069;1264;96483;-84
2023/11/27 10:28:48;;;;;;;19.00;13.00;;;;;;;0.34;97.72;99731.27;106139;1260;103731;-85
2023/11/27 10:31:37;;;;;;;21.50;14.10;;;;;;;0.37;97.89;99732.93;106200;1263;99192;-83
2023/11/27 10:34:31;;;;;;;22.50;12.50;;;;;;;0.38;97.68;99732.27;106072;1263;99140;-81
2023/11/27 10:37:16;;;;;;;26.00;17.50;;;;;;;0.39;97.68;99727.48;105992;1260;97980;-82
2023/11/27 10:40:04;;;;;;;24.50;16.20;;;;;;;0.40;97.99;99728.73;105998;1261;97960;-82
2023/11/27 10:42:49;;;;;;;25.40;16.70;;;;;;;0.43;97.94;99729.39;105911;1260;101564;-82
2023/11/27 10:45:36;;;;;;;26.30;16.40;;;;;;;0.43;97.89;99726.03;106040;1261;99158;-85
2023/11/27 10:48:24;;;;;;;25.70;15.80;;;;;;;0.43;97.88;99722.20;105853;1264;98798;-85
2023/11/27 10:51:13;;;;;;;29.50;17.20;;;;;;;0.44;97.96;99721.57;106083;1266;98057;-86
2023/11/27 10:54:00;;;;;;;24.30;15.30;;;;;;;0.43;97.97;99719.11;106212;1264;98573;-84
2023/11/27 10:56:47;;;;;;;29.60;19.30;;;;;;;0.44;98.09;99719.27;106382;1261;101408;-80
2023/11/27 10:59:38;;;;;;;31.20;18.50;;;;;;;0.45;98.09;99715.13;106537;1261;100390;-89
2023/11/27 11:02:25;;;;;;;31.30;17.90;;;;;;;0.46;97.92;99710.13;105610;1263;98474;-82
2023/11/27 11:05:14;;;;;;;30.20;18.60;;;;;;;0.44;97.84;99708.05;105899;1260;98181;-85
2023/11/27 11:08:03;;;;;;;27.90;18.30;;;;;;;0.44;98.14;99708.52;106265;1263;98513;-82
2023/11/27 11:10:49;;;;;;;27.80;17.30;;;;;;;0.46;98.15;99709.23;106213;1263;102961;-87
2023/11/27 11:13:35;;;;;;;25.40;16.90;;;;;;;0.47;98.20;99710.15;106085;1262;99230;-82
2023/11/27 11:16:31;;;;;;;30.50;17.40;;;;;;;0.49;98.20;99706.45;105864;1267;99093;-80
2023/11/27 11:19:36;;;;;;;22.20;14.60;;;;;;;0.48;97.84;99704.85;105883;1263;98145;-81
2023/11/27 11:22:44;;;;;;;23.30;14.90;;;;;;;0.45;97.88;99704.63;105998;1259;99769;-82
2023/11/27 11:25:51;;;;;;;29.70;15.40;;;;;;;0.42;97.92;99702.80;106012;1259;102586;-84
2023/11/27 11:28:49;;;;;;;25.10;14.70;;;;;;;0.41;97.91;99701.64;106017;1261;99174;-88
2023/11/27 11:31:38;;;;;;;24.30;15.20;;;;;;;0.40;97.95;99698.92;106784;1260;97933;-88
2023/11/27 11:34:24;;;;;;;21.80;15.10;;;;;;;0.40;98.07;99697.14;106456;1260;97958;-85
2023/11/27 11:37:12;;;;;;;28.10;15.70;;;;;;;0.44;98.37;99696.77;105999;1259;98396;-78
2023/11/27 11:39:57;;;;;;;28.10;18.80;;;;;;;0.46;98.36;99698.02;105403;1261;101256;-77
2023/11/27 11:42:47;;;;;;;28.80;18.30;;;;;;;0.48;98.49;99695.55;105078;1264;99633;-77
2023/11/27 11:45:39;;;;;;;23.50;15.00;;;;;;;0.48;98.36;99698.20;105265;1261;99432;-76
2023/11/27 11:48:36;;;;;;;29.10;16.80;;;;;;;0.48;98.51;99695.37;105391;1258;98539;-76
2023/11/27 11:51:24;;;;;;;25.40;14.50;;;;;;;0.49;98.68;99693.64;105486;1259;98508;-78
2023/11/27 11:54:10;;;;;;;28.30;15.80;;;;;;;0.51;98.81;99689.81;105576;1260;101450;-85
2023/11/27 11:57:13;;;;;;;27.10;16.30;;;;;;;0.51;98.77;99690.11;105840;1264;99235;-84
2023/11/27 12:00:03;;;;;;;25.40;15.70;;;;;;;0.52;99.08;99686.37;106057;1264;98012;-84
2023/11/27 12:03:00;;;;;;;28.60;16.00;;;;;;;0.53;99.16;99686.45;106134;1265;97875;-81
2023/11/27 12:05:49;;;;;;;29.10;15.40;;;;;;;0.52;99.17;99688.41;106097;1263;97967;-81
2023/11/27 12:08:37;;;;;;;27.30;15.80;;;;;;;0.55;99.56;99685.73;108249;1259;101389;-81
2023/11/27 12:11:23;;;;;;;28.70;15.20;;;;;;;0.59;99.52;99685.70;106972;1259;99142;-81
2023/11/27 12:14:18;;;;;;;26.40;15.30;;;;;;;0.57;99.39;99685.86;106457;1260;99152;-80
2023/11/27 12:17:07;;;;;;;28.20;16.30;;;;;;;0.57;99.52;99686.90;106449;1263;97911;-81
2023/11/27 12:19:53;;;;;;;22.90;14.00;;;;;;;0.59;99.68;99680.60;106366;1260;97853;-81
2023/11/27 12:22:44;;;;;;;28.90;17.30;;;;;;;0.59;99.59;99676.93;106372;1260;101543;-79
2023/11/27 12:25:29;;;;;;;27.80;15.50;;;;;;;0.58;99.59;99674.52;106143;1258;100091;-80
2023/11/27 12:28:15;;;;;;;26.10;15.70;;;;;;;0.58;99.75;99669.24;105601;1264;97886;-79
2023/11/27 12:31:03;;;;;;;25.00;16.20;;;;;;;0.61;99.85;99671.60;105586;1259;98008;-80
2023/11/27 12:33:49;;;;;;;27.10;16.00;;;;;;;0.59;99.88;99669.80;105505;1265;100336;-78
2023/11/27 12:36:36;;;;;;;26.20;14.90;;;;;;;0.59;99.87;99671.13;108174;1258;102645;-80
2023/11/27 12:39:28;;;;;;;26.10;15.70;;;;;;;0.56;99.91;99668.52;106070;1263;100561;-79